Time;durP1;ratioP1;P1;durP2;ratioP2;P2;SDS_P1;SDS_P2;PMS_P1;PMS_P2;Temp;Humidity;BMP_temperature;BMP_pressure;BME280_temperature;BME280_humidity;BME280_pressure;Samples;Min_cycle;Max_cycle;Signal;HPM_P1;HPM_P2
2022/01/11 00:02:30;;;;;;;36.07;18.17;;;;;;;-2.31;84.59;100254.89;4361945;80;21046;-85
2022/01/11 00:08:33;;;;;;;29.63;14.70;;;;;;;-2.32;84.55;100261.86;4341819;80;21022;-85
2022/01/11 00:14:38;;;;;;;31.20;16.37;;;;;;;-2.32;84.41;100255.94;4350241;80;21065;-84
2022/01/11 00:20:39;;;;;;;38.80;18.37;;;;;;;-2.30;84.31;100259.73;4339983;80;21042;-85
2022/01/11 00:26:41;;;;;;;37.37;17.47;;;;;;;-2.27;84.23;100263.23;4378516;80;21650;-84
2022/01/11 00:32:48;;;;;;;34.63;16.03;;;;;;;-2.27;84.04;100271.27;4354019;80;21032;-85
2022/01/11 00:38:48;;;;;;;31.40;15.47;;;;;;;-2.26;84.02;100279.58;4356861;80;21102;-84
2022/01/11 00:44:49;;;;;;;31.63;16.27;;;;;;;-2.24;83.74;100279.59;4370622;80;21959;-84
2022/01/11 00:50:51;;;;;;;29.73;14.40;;;;;;;-2.19;83.72;100285.50;4372552;80;21069;-84
2022/01/11 00:56:52;;;;;;;32.80;15.40;;;;;;;-2.20;83.59;100278.54;4380760;80;21074;-85
2022/01/11 01:02:56;;;;;;;33.27;14.73;;;;;;;-2.22;83.31;100277.45;4368208;80;21518;-84
2022/01/11 01:08:58;;;;;;;30.37;14.50;;;;;;;-2.24;83.44;100288.97;4380618;80;21896;-83
2022/01/11 01:15:01;;;;;;;33.57;16.67;;;;;;;-2.23;83.30;100287.11;4369448;80;21028;-84
2022/01/11 01:21:04;;;;;;;31.40;16.07;;;;;;;-2.16;83.18;100293.06;4384014;80;21988;-84
2022/01/11 01:27:07;;;;;;;35.50;16.67;;;;;;;-2.11;83.15;100284.48;4378978;80;21534;-84
2022/01/11 01:33:09;;;;;;;37.27;15.77;;;;;;;-2.12;83.14;100292.80;4371623;80;20967;-84
2022/01/11 01:39:15;;;;;;;34.17;15.70;;;;;;;-2.14;82.99;100292.25;4370914;80;21003;-84
2022/01/11 01:45:16;;;;;;;27.37;14.25;;;;;;;-2.12;82.92;100298.98;4368526;80;20963;-83
2022/01/11 01:51:17;;;;;;;30.03;14.30;;;;;;;-2.13;82.95;100301.93;4367014;80;21558;-84
2022/01/11 01:57:24;;;;;;;31.57;16.07;;;;;;;-2.15;82.87;100303.53;4344133;80;20967;-83
2022/01/11 02:03:26;;;;;;;34.63;15.70;;;;;;;-2.15;82.79;100305.40;4379342;80;21526;-83
2022/01/11 02:09:28;;;;;;;31.57;15.20;;;;;;;-2.15;82.69;100305.40;4351263;80;21582;-84
2022/01/11 02:15:30;;;;;;;30.60;14.47;;;;;;;-2.12;82.53;100303.53;4353371;80;21005;-83
2022/01/11 02:21:32;;;;;;;36.53;17.97;;;;;;;-2.12;82.64;100307.03;4354025;80;22060;-83
2022/01/11 02:27:34;;;;;;;36.53;19.03;;;;;;;-2.10;82.63;100314.83;4361229;80;21859;-83
2022/01/11 02:33:42;;;;;;;44.93;20.93;;;;;;;-2.11;82.46;100316.69;4319616;80;21002;-84
2022/01/11 02:39:47;;;;;;;40.93;20.20;;;;;;;-2.09;82.54;100315.09;4306515;80;21066;-84
2022/01/11 02:45:52;;;;;;;32.93;15.00;;;;;;;-2.10;82.47;100325.55;4268427;81;21066;-84
2022/01/11 02:51:54;;;;;;;28.37;13.77;;;;;;;-2.10;82.47;100329.58;4232327;84;21526;-83
2022/01/11 02:57:56;;;;;;;30.73;14.33;;;;;;;-2.12;82.44;100327.68;4229579;84;21038;-83
2022/01/11 03:03:59;;;;;;;31.33;14.70;;;;;;;-2.16;82.41;100327.94;4233909;84;21889;-83
2022/01/11 03:10:17;;;;;;;35.10;15.77;;;;;;;-2.18;82.16;100339.45;4243627;83;21498;-85
2022/01/11 03:16:19;;;;;;;30.32;14.50;;;;;;;-2.21;81.89;100341.31;4271362;83;21037;-84
2022/01/11 03:22:18;;;;;;;28.62;14.85;;;;;;;-2.24;82.18;100341.84;4272261;81;21370;-83
2022/01/11 03:28:22;;;;;;;26.42;13.00;;;;;;;-2.26;82.03;100356.84;4218403;84;20987;-83
2022/01/11 03:34:23;;;;;;;27.20;13.83;;;;;;;-2.26;81.85;100356.03;4171684;84;21079;-83
2022/01/11 03:40:27;;;;;;;29.05;13.85;;;;;;;-2.27;81.96;100361.12;4264739;83;21073;-83
2022/01/11 03:46:29;;;;;;;29.83;12.73;;;;;;;-2.28;82.01;100354.12;4273599;82;20975;-83
2022/01/11 03:52:30;;;;;;;30.33;13.70;;;;;;;-2.29;81.79;100364.59;4275703;82;21602;-82
2022/01/11 03:58:34;;;;;;;25.33;12.43;;;;;;;-2.32;81.83;100371.81;4277358;82;21053;-83
2022/01/11 04:04:37;;;;;;;29.82;13.38;;;;;;;-2.34;81.76;100383.33;4266210;82;21028;-83
2022/01/11 04:10:38;;;;;;;25.47;12.33;;;;;;;-2.39;81.44;100387.30;4278567;81;20994;-84
2022/01/11 04:16:40;;;;;;;25.10;12.83;;;;;;;-2.47;81.30;100399.84;4266292;82;21518;-84
2022/01/11 04:22:43;;;;;;;25.90;11.87;;;;;;;-2.54;80.79;100396.58;4278768;82;21527;-82
2022/01/11 04:28:45;;;;;;;22.63;12.23;;;;;;;-2.63;80.85;100399.46;4288595;81;21640;-82
2022/01/11 04:34:46;;;;;;;25.43;12.47;;;;;;;-2.65;80.73;100402.40;4329473;81;21031;-82
2022/01/11 04:40:58;;;;;;;32.87;12.57;;;;;;;-2.73;80.66;100401.52;4339722;80;21022;-83
2022/01/11 04:47:03;;;;;;;21.73;11.37;;;;;;;-2.77;80.63;100419.70;4227605;81;43099;-86
2022/01/11 04:53:05;;;;;;;31.57;13.60;;;;;;;-2.82;80.50;100419.65;4155256;85;21085;-82
2022/01/11 04:59:07;;;;;;;24.30;12.10;;;;;;;-2.97;80.36;100421.63;4138031;85;21030;-82
2022/01/11 05:05:09;;;;;;;30.47;13.87;;;;;;;-3.05;80.29;100436.03;4113547;85;20982;-83
2022/01/11 05:11:12;;;;;;;27.53;12.77;;;;;;;-3.12;80.27;100442.91;4148542;85;21121;-82
2022/01/11 05:17:13;;;;;;;24.87;11.67;;;;;;;-3.15;79.83;100444.75;4142326;85;21359;-84
2022/01/11 05:23:16;;;;;;;23.87;12.03;;;;;;;-3.18;79.70;100447.12;4133588;85;21133;-82
2022/01/11 05:29:18;;;;;;;26.77;11.40;;;;;;;-3.26;79.80;100450.50;4125242;85;21111;-84
2022/01/11 05:35:22;;;;;;;20.53;10.90;;;;;;;-3.33;79.69;100453.09;4138882;85;21595;-83
2022/01/11 05:41:23;;;;;;;25.47;11.07;;;;;;;-3.45;79.58;100469.81;4135805;85;21125;-82
2022/01/11 05:47:26;;;;;;;30.10;13.10;;;;;;;-3.58;79.40;100476.34;4126906;85;21034;-83
2022/01/11 05:53:28;;;;;;;24.67;13.57;;;;;;;-3.66;79.49;100489.32;4127650;85;21037;-81
2022/01/11 05:59:30;;;;;;;33.73;16.33;;;;;;;-3.67;79.72;100487.19;4144444;85;21068;-83
2022/01/11 06:05:37;;;;;;;40.60;17.67;;;;;;;-3.67;79.57;100493.88;4149618;85;21970;-83
2022/01/11 06:11:37;;;;;;;56.03;23.40;;;;;;;-3.67;79.64;100503.25;4137241;85;21093;-80
2022/01/11 06:17:39;;;;;;;51.87;18.27;;;;;;;-3.64;79.74;100517.48;4140925;85;21550;-82
2022/01/11 06:23:41;;;;;;;39.07;16.60;;;;;;;-3.59;79.76;100523.42;4131681;85;21034;-82
2022/01/11 06:29:42;;;;;;;39.20;17.90;;;;;;;-3.57;79.73;100524.79;4130483;85;21077;-81
2022/01/11 06:35:44;;;;;;;37.17;16.17;;;;;;;-3.59;79.61;100542.98;4144308;85;21909;-83
2022/01/11 06:41:46;;;;;;;29.73;13.57;;;;;;;-3.66;79.60;100553.55;4130374;84;21124;-81
2022/01/11 06:47:49;;;;;;;37.13;15.43;;;;;;;-3.72;79.68;100557.21;4148631;84;21069;-83
2022/01/11 06:53:52;;;;;;;33.17;15.33;;;;;;;-3.81;79.70;100562.18;4110656;85;21099;-81
2022/01/11 06:59:55;;;;;;;30.43;14.37;;;;;;;-3.83;79.81;100570.97;4142804;84;21077;-80
2022/01/11 07:05:58;;;;;;;30.90;15.37;;;;;;;-3.80;80.19;100591.06;4144087;84;21104;-84
2022/01/11 07:12:01;;;;;;;37.63;14.53;;;;;;;-3.73;80.50;100597.87;4151923;84;21085;-81
2022/01/11 07:18:08;;;;;;;37.60;16.87;;;;;;;-3.73;79.76;100603.22;4111035;85;21037;-82
2022/01/11 07:24:06;;;;;;;38.17;16.83;;;;;;;-3.70;80.19;100619.34;4147028;84;22181;-82
2022/01/11 07:30:10;;;;;;;40.53;15.80;;;;;;;-3.59;80.12;100620.61;4143484;85;21081;-81
2022/01/11 07:36:13;;;;;;;33.20;15.87;;;;;;;-3.52;80.08;100625.26;4137802;85;21050;-82
2022/01/11 07:42:17;;;;;;;32.10;14.90;;;;;;;-3.42;80.20;100626.77;4142777;84;21042;-81
2022/01/11 07:48:32;;;;;;;33.02;16.25;;;;;;;-3.29;80.30;100635.78;4117003;85;21757;-81
2022/01/11 07:54:37;;;;;;;36.20;17.40;;;;;;;-3.17;80.30;100642.40;4063115;86;21205;-82
2022/01/11 08:00:39;;;;;;;35.00;16.33;;;;;;;-3.07;80.09;100635.04;4212055;84;21114;-82
2022/01/11 08:06:41;;;;;;;37.63;16.43;;;;;;;-3.03;80.05;100638.31;4205785;84;21596;-82
2022/01/11 08:12:45;;;;;;;35.07;16.60;;;;;;;-2.98;80.05;100639.73;4077726;86;21105;-85
2022/01/11 08:18:48;;;;;;;35.43;16.97;;;;;;;-2.86;80.14;100648.98;4145180;85;21042;-82
2022/01/11 08:24:51;;;;;;;38.40;15.70;;;;;;;-2.77;80.19;100641.61;4130680;85;21052;-82
2022/01/11 08:30:53;;;;;;;38.00;16.07;;;;;;;-2.69;80.17;100635.82;4243850;80;35009;-83
2022/01/11 08:36:55;;;;;;;31.77;15.17;;;;;;;-2.59;80.11;100656.07;4261046;82;21053;-83
2022/01/11 08:42:58;;;;;;;27.50;12.93;;;;;;;-2.45;80.19;100653.81;4271272;81;21080;-83
2022/01/11 08:49:01;;;;;;;28.87;14.83;;;;;;;-2.41;79.98;100653.06;4260158;82;21005;-83
2022/01/11 08:55:07;;;;;;;29.67;12.70;;;;;;;-2.33;80.27;100655.83;4196217;83;21057;-83
2022/01/11 09:01:11;;;;;;;28.47;12.53;;;;;;;-2.21;80.04;100663.23;4144110;85;21672;-83
2022/01/11 09:07:14;;;;;;;26.23;12.53;;;;;;;-2.10;80.05;100660.39;4264132;82;21483;-84
2022/01/11 09:13:19;;;;;;;28.90;13.23;;;;;;;-2.03;79.94;100661.02;4260022;82;21041;-84
2022/01/11 09:19:21;;;;;;;25.20;12.20;;;;;;;-1.99;79.87;100653.28;4197440;84;21067;-84
2022/01/11 09:25:24;;;;;;;25.97;11.57;;;;;;;-1.99;79.95;100661.33;4191498;84;21043;-86
2022/01/11 09:31:34;;;;;;;20.87;10.00;;;;;;;-1.91;79.79;100664.91;4186990;84;21126;-86
2022/01/11 09:37:38;;;;;;;24.50;12.47;;;;;;;-1.94;79.66;100671.57;4204098;84;21094;-84
2022/01/11 09:43:39;;;;;;;19.00;9.03;;;;;;;-1.85;79.54;100670.59;4246527;82;21105;-85
2022/01/11 09:49:43;;;;;;;19.23;10.93;;;;;;;-1.80;79.56;100665.26;4253685;83;22197;-86
2022/01/11 09:55:45;;;;;;;20.20;10.03;;;;;;;-1.78;79.31;100663.95;4257273;83;21560;-87
2022/01/11 10:01:51;;;;;;;22.07;10.98;;;;;;;-1.72;78.89;100650.03;4276135;83;21000;-88
2022/01/11 10:08:25;;;;;;;18.60;10.32;;;;;;;-1.49;79.33;100650.24;4230573;83;21048;-88
2022/01/11 10:14:35;;;;;;;17.75;9.10;;;;;;;-1.40;79.08;100649.52;4253584;83;21038;-88
2022/01/11 10:20:39;;;;;;;20.17;11.73;;;;;;;-1.13;78.97;100650.79;4242967;83;21099;-88
2022/01/11 10:26:53;;;;;;;18.10;9.88;;;;;;;-0.51;75.67;100639.56;4257111;83;21599;-89
2022/01/11 10:33:04;;;;;;;16.97;8.83;;;;;;;-0.25;78.37;100665.52;4210897;83;21791;-88
2022/01/11 10:39:29;;;;;;;15.13;8.93;;;;;;;0.43;78.24;100665.66;4218064;83;21022;-87
2022/01/11 10:45:35;;;;;;;24.70;16.55;;;;;;;0.42;77.91;100672.95;4216268;83;22299;-88
2022/01/11 10:51:37;;;;;;;39.53;21.50;;;;;;;0.30;76.74;100666.98;4246691;82;21597;-88
2022/01/11 10:57:39;;;;;;;16.93;9.08;;;;;;;0.05;77.46;100662.90;4238653;81;21081;-89
2022/01/11 11:03:43;;;;;;;30.10;16.62;;;;;;;0.20;77.21;100666.98;4215660;82;22051;-89
2022/01/11 11:10:23;;;;;;;39.90;20.40;;;;;;;0.26;74.12;100673.18;4207749;84;21081;-88
2022/01/11 11:16:29;;;;;;;20.20;10.53;;;;;;;0.18;76.14;100666.44;4152366;84;21003;-88
2022/01/11 11:22:52;;;;;;;20.68;10.25;;;;;;;0.03;74.67;100664.25;4186704;84;21051;-88
2022/01/11 11:36:13;;;;;;;24.82;12.95;;;;;;;0.46;75.19;100665.94;4243860;83;21093;-88
2022/01/11 11:42:18;;;;;;;17.50;8.63;;;;;;;0.28;75.06;100660.27;4258966;81;21927;-87
2022/01/11 11:48:31;;;;;;;23.55;11.60;;;;;;;0.38;74.95;100658.38;4246135;82;22341;-88
2022/01/11 11:54:47;;;;;;;24.15;11.75;;;;;;;0.48;74.45;100658.93;4116842;85;21067;-88
2022/01/11 12:00:51;;;;;;;22.27;12.17;;;;;;;0.46;74.63;100654.34;4085996;86;21050;-88
2022/01/11 12:06:55;;;;;;;26.00;14.33;;;;;;;0.40;74.44;100664.84;4087593;86;21089;-87
2022/01/11 12:13:00;;;;;;;32.90;16.12;;;;;;;0.07;74.42;100665.33;4111114;85;22164;-87
2022/01/11 12:25:58;;;;;;;23.35;11.70;;;;;;;-0.46;74.60;100671.88;4213395;82;21103;-87
2022/01/11 12:32:10;;;;;;;26.75;11.57;;;;;;;-0.70;74.29;100666.11;4171032;84;21094;-87
2022/01/11 12:38:13;;;;;;;27.95;14.55;;;;;;;-0.86;74.37;100673.02;4268375;82;21036;-87
2022/01/11 12:51:11;;;;;;;69.10;27.52;;;;;;;-0.97;74.46;100673.47;3967353;88;21055;-87
2022/01/11 13:04:48;;;;;;;27.93;12.85;;;;;;;-0.86;74.10;100661.70;3768851;93;21219;-87
2022/01/11 13:10:49;;;;;;;34.00;16.62;;;;;;;-0.80;73.49;100685.42;3827920;88;21127;-88
2022/01/11 13:24:49;;;;;;;29.60;13.93;;;;;;;-0.51;73.98;100683.43;4131356;85;21432;-88
2022/01/11 13:30:57;;;;;;;30.40;13.43;;;;;;;-0.44;73.68;100692.61;4137738;84;21153;-87
2022/01/11 13:37:19;;;;;;;40.17;16.60;;;;;;;-0.58;73.56;100671.30;4181444;84;20982;-87
2022/01/11 13:50:17;;;;;;;33.10;15.32;;;;;;;-0.58;73.85;100688.78;4111676;84;21166;-87
2022/01/11 14:10:34;;;;;;;37.93;18.20;;;;;;;-0.98;73.28;100674.55;4284753;80;21056;-88
2022/01/11 14:23:52;;;;;;;41.15;18.70;;;;;;;-1.01;73.69;100704.64;4168627;84;21101;-88
2022/01/11 14:36:35;;;;;;;45.20;19.95;;;;;;;-1.18;73.57;100708.00;4137823;82;21587;-88
2022/01/11 14:42:53;;;;;;;42.53;21.05;;;;;;;-1.19;73.89;100708.26;4254417;83;21346;-88
2022/01/11 14:49:09;;;;;;;43.30;23.17;;;;;;;-1.22;73.81;100715.49;4329385;81;21040;-88
2022/01/11 14:55:10;;;;;;;61.47;27.27;;;;;;;-1.29;74.02;100720.25;4322039;81;20992;-88
2022/01/11 15:01:34;;;;;;;78.25;33.60;;;;;;;-1.39;73.86;100713.47;4340935;81;20972;-86
2022/01/11 15:08:00;;;;;;;48.05;22.55;;;;;;;-1.44;73.87;100706.70;4308114;81;21577;-88
2022/01/11 15:20:40;;;;;;;52.50;23.83;;;;;;;-1.50;74.13;100710.41;4273264;81;71803;-88
2022/01/11 15:26:43;;;;;;;55.08;22.93;;;;;;;-1.64;74.04;100704.63;4357766;80;21056;-89
2022/01/11 15:32:45;;;;;;;52.80;22.15;;;;;;;-1.74;74.45;100709.91;4351852;80;20990;-88
2022/01/11 15:38:47;;;;;;;49.60;20.77;;;;;;;-1.84;74.54;100710.61;4343472;81;21086;-88
2022/01/11 15:44:50;;;;;;;48.98;20.90;;;;;;;-2.02;74.68;100718.98;4343108;81;21471;-88
2022/01/11 15:50:55;;;;;;;45.93;19.50;;;;;;;-2.18;74.36;100724.43;4330638;81;21085;-89
2022/01/11 15:56:56;;;;;;;49.60;21.60;;;;;;;-2.38;74.59;100724.19;4347122;79;21065;-89
2022/01/11 16:02:58;;;;;;;50.93;21.93;;;;;;;-2.54;74.44;100729.88;4314033;81;21009;-87
2022/01/11 16:09:04;;;;;;;41.48;20.32;;;;;;;-2.69;74.62;100734.22;4374054;81;20979;-89
2022/01/11 16:15:06;;;;;;;53.30;24.53;;;;;;;-2.85;74.72;100737.72;4365001;81;21051;-88
2022/01/11 16:21:07;;;;;;;66.53;25.80;;;;;;;-2.99;75.00;100737.23;4360877;81;21621;-88
2022/01/11 16:27:09;;;;;;;63.93;29.03;;;;;;;-3.13;75.11;100743.97;4359456;81;21759;-88
2022/01/11 16:33:16;;;;;;;70.93;31.93;;;;;;;-3.27;75.25;100756.05;4358073;81;21019;-88
2022/01/11 16:39:35;;;;;;;63.57;28.37;;;;;;;-3.38;75.88;100756.94;4366460;81;21027;-88
2022/01/11 16:45:36;;;;;;;57.43;27.37;;;;;;;-3.42;75.78;100764.66;4357449;81;21499;-88
2022/01/11 16:51:38;;;;;;;71.47;30.67;;;;;;;-3.37;76.40;100767.95;4371960;81;21554;-89
2022/01/11 16:57:39;;;;;;;97.97;37.50;;;;;;;-3.47;76.21;100770.44;4371927;81;21522;-87
2022/01/11 17:03:41;;;;;;;91.90;36.83;;;;;;;-3.55;76.49;100778.34;4379668;81;21018;-87
2022/01/11 17:09:44;;;;;;;87.00;35.40;;;;;;;-3.64;76.38;100779.78;4381753;80;21006;-87
2022/01/11 17:15:45;;;;;;;74.53;32.07;;;;;;;-3.72;76.55;100788.70;4379648;81;20976;-87
2022/01/11 17:21:48;;;;;;;67.17;32.33;;;;;;;-3.82;76.76;100789.86;4374661;81;21616;-87
2022/01/11 17:27:49;;;;;;;79.03;33.13;;;;;;;-3.85;77.00;100799.70;4372527;81;21006;-87
2022/01/11 17:33:52;;;;;;;84.77;37.33;;;;;;;-3.98;76.86;100791.94;4371093;81;21054;-86
2022/01/11 17:39:53;;;;;;;91.03;36.33;;;;;;;-4.16;76.87;100797.43;4372101;80;21033;-87
2022/01/11 17:45:55;;;;;;;96.20;39.73;;;;;;;-4.28;77.48;100797.98;4374739;81;20987;-86
2022/01/11 17:51:56;;;;;;;102.67;42.97;;;;;;;-4.30;77.68;100807.58;4364392;81;21408;-86
2022/01/11 17:57:58;;;;;;;96.63;40.50;;;;;;;-4.31;77.74;100809.15;4360553;81;21948;-87
2022/01/11 18:03:59;;;;;;;97.63;40.67;;;;;;;-4.30;78.38;100810.25;4358745;81;20995;-86
2022/01/11 18:10:01;;;;;;;96.57;38.47;;;;;;;-4.22;79.04;100811.75;4364204;81;20991;-86
2022/01/11 18:16:04;;;;;;;101.90;44.53;;;;;;;-4.23;78.90;100816.81;4363980;81;21042;-86
2022/01/11 18:22:06;;;;;;;107.23;45.43;;;;;;;-4.22;79.27;100831.80;4363066;81;21074;-84
2022/01/11 18:28:10;;;;;;;125.20;51.10;;;;;;;-4.23;79.32;100821.66;4351330;81;21006;-85
2022/01/11 18:34:12;;;;;;;155.63;63.87;;;;;;;-4.21;78.84;100834.78;4363375;81;21084;-86
2022/01/11 18:40:14;;;;;;;138.60;57.67;;;;;;;-4.24;79.24;100845.41;4360933;81;21054;-85
2022/01/11 18:46:15;;;;;;;121.13;51.27;;;;;;;-4.20;79.66;100849.26;4364807;81;20982;-85
2022/01/11 18:52:18;;;;;;;131.57;53.93;;;;;;;-4.15;78.61;100848.01;4358239;81;21070;-85
2022/01/11 18:58:20;;;;;;;153.90;61.43;;;;;;;-4.13;78.70;100853.95;4365274;81;21054;-85
2022/01/11 19:04:22;;;;;;;144.43;55.97;;;;;;;-4.12;78.49;100860.12;4354994;81;21558;-84
2022/01/11 19:10:24;;;;;;;149.03;57.70;;;;;;;-4.14;78.97;100859.53;4368308;81;21551;-84
2022/01/11 19:16:27;;;;;;;136.40;48.77;;;;;;;-4.15;79.15;100863.27;4366850;81;21603;-84
2022/01/11 19:22:28;;;;;;;132.07;50.10;;;;;;;-4.17;79.22;100872.86;4376649;80;21023;-84
2022/01/11 19:28:32;;;;;;;132.07;47.17;;;;;;;-4.20;79.64;100873.33;4378606;80;20998;-84
2022/01/11 19:34:35;;;;;;;141.27;48.33;;;;;;;-4.22;79.93;100868.73;4374794;80;21437;-84
2022/01/11 19:40:36;;;;;;;127.77;48.83;;;;;;;-4.23;79.77;100878.31;4399972;80;20974;-84
2022/01/11 19:46:38;;;;;;;127.13;45.83;;;;;;;-4.27;80.15;100869.94;4368212;80;21006;-85
2022/01/11 19:52:40;;;;;;;124.97;45.13;;;;;;;-4.29;80.33;100868.02;4382822;80;21493;-83
2022/01/11 19:58:42;;;;;;;120.13;44.67;;;;;;;-4.30;80.48;100880.28;4371086;80;21077;-83
2022/01/11 20:04:43;;;;;;;114.00;43.73;;;;;;;-4.32;80.83;100876.50;4394285;80;21087;-83
2022/01/11 20:10:50;;;;;;;131.80;46.57;;;;;;;-4.30;80.93;100868.25;4362184;80;20999;-84
2022/01/11 20:16:53;;;;;;;137.10;47.47;;;;;;;-4.34;81.10;100872.45;4371703;80;21511;-85
2022/01/11 20:29:14;;;;;;;147.23;49.83;;;;;;;-4.31;81.41;100868.80;4379227;80;21046;-84
2022/01/11 20:35:16;;;;;;;119.47;44.20;;;;;;;-4.30;81.65;100866.41;4361145;80;21905;-85
2022/01/11 20:41:17;;;;;;;127.17;44.40;;;;;;;-4.26;81.76;100874.23;4323777;80;21002;-83
2022/01/11 20:47:30;;;;;;;135.43;44.07;;;;;;;-4.19;81.95;100868.77;4371249;80;21023;-84
2022/01/11 20:53:31;;;;;;;111.13;42.53;;;;;;;-4.17;82.09;100866.69;4370907;80;20956;-84
2022/01/11 20:59:35;;;;;;;112.70;41.73;;;;;;;-4.12;82.22;100864.92;4293518;82;20968;-84
2022/01/11 21:05:36;;;;;;;98.87;37.47;;;;;;;-4.13;82.36;100874.00;4333536;81;21046;-85
2022/01/11 21:11:38;;;;;;;93.53;35.97;;;;;;;-4.13;82.52;100873.18;4316985;81;21051;-83
2022/01/11 21:23:58;;;;;;;97.53;36.03;;;;;;;-4.06;82.95;100867.20;4303057;81;20983;-83
2022/01/11 21:30:01;;;;;;;89.53;34.77;;;;;;;-3.97;82.87;100865.78;4280509;82;21019;-84
2022/01/11 21:36:03;;;;;;;110.77;40.70;;;;;;;-4.01;82.85;100853.94;4372474;80;21086;-84
2022/01/11 21:42:04;;;;;;;109.57;38.13;;;;;;;-4.03;82.98;100860.86;4278911;82;21046;-85
2022/01/11 21:48:06;;;;;;;89.63;35.47;;;;;;;-4.01;83.01;100869.45;4372496;80;21037;-83
2022/01/11 21:54:09;;;;;;;85.33;32.97;;;;;;;-4.01;83.14;100863.30;4390268;80;21744;-83
2022/01/11 22:00:13;;;;;;;104.47;35.63;;;;;;;-3.94;83.52;100870.14;4296308;81;20988;-82
2022/01/11 22:06:14;;;;;;;105.43;35.33;;;;;;;-4.01;83.37;100863.30;4375939;80;21046;-83
2022/01/11 22:12:18;;;;;;;110.93;36.43;;;;;;;-4.06;83.53;100854.65;4295846;81;21035;-82
2022/01/11 22:18:19;;;;;;;87.13;31.73;;;;;;;-4.04;83.60;100861.89;4355205;80;21010;-82
2022/01/11 22:24:21;;;;;;;81.67;30.87;;;;;;;-4.10;83.69;100862.83;4391390;80;21014;-82
2022/01/11 22:30:23;;;;;;;70.57;27.10;;;;;;;-4.07;84.14;100869.59;4394504;80;21019;-83
2022/01/11 22:36:25;;;;;;;92.93;33.90;;;;;;;-4.11;84.18;100869.75;4369773;80;21054;-82
2022/01/11 22:42:26;;;;;;;72.90;27.57;;;;;;;-4.14;84.29;100868.38;4388590;80;21483;-82
2022/01/11 22:48:27;;;;;;;69.00;27.47;;;;;;;-4.15;84.41;100873.96;4382964;80;21558;-81
2022/01/11 22:54:30;;;;;;;66.83;26.63;;;;;;;-4.17;84.46;100874.70;4394199;80;20977;-82
2022/01/11 23:00:43;;;;;;;74.37;27.07;;;;;;;-4.12;84.63;100877.50;4294048;82;21836;-81
2022/01/11 23:06:48;;;;;;;61.77;24.43;;;;;;;-4.15;85.49;100876.09;4350352;80;21054;-82
2022/01/11 23:18:56;;;;;;;62.00;23.20;;;;;;;-4.18;85.34;100873.09;4302311;80;21058;-82
2022/01/11 23:24:58;;;;;;;61.43;24.43;;;;;;;-4.18;85.08;100869.08;4368079;80;21042;-81
2022/01/11 23:31:00;;;;;;;67.77;23.73;;;;;;;-4.17;85.19;100873.38;4365767;80;21030;-82
2022/01/11 23:37:09;;;;;;;57.77;22.57;;;;;;;-4.19;85.33;100874.12;4372904;80;20968;-82
2022/01/11 23:43:28;;;;;;;56.97;22.90;;;;;;;-4.23;85.42;100883.67;4379178;80;21575;-82
2022/01/11 23:49:19;;;;;;;59.80;23.30;;;;;;;-4.21;85.33;100874.90;4271423;82;20988;-81
2022/01/11 23:55:22;;;;;;;54.23;21.03;;;;;;;-4.16;85.39;100878.48;4353889;80;21046;-82
